Time;durP1;ratioP1;P1;durP2;ratioP2;P2;SDS_P1;SDS_P2;PMS_P1;PMS_P2;Temp;Humidity;BMP_temperature;BMP_pressure;BME280_temperature;BME280_humidity;BME280_pressure;Samples;Min_cycle;Max_cycle;Signal;HPM_P1;HPM_P2
2023/09/27 00:01:37;;;;;;;6.43;5.25;;;;;;;;;;6134766;23;20365;-82
2023/09/27 00:04:06;;;;;;;8.32;5.88;;;;;;;;;;6135017;23;20021;-82
2023/09/27 00:06:33;;;;;;;6.82;5.65;;;;;;;;;;6110235;23;20032;-82
2023/09/27 00:09:01;;;;;;;8.23;6.78;;;;;;;;;;6159926;23;20017;-82
2023/09/27 00:11:28;;;;;;;6.03;3.92;;;;;;;;;;6160072;23;20013;-82
2023/09/27 00:13:55;;;;;;;6.93;4.22;;;;;;;;;;6111251;23;20465;-82
2023/09/27 00:16:25;;;;;;;6.53;5.82;;;;;;;;;;6185948;23;20492;-82
2023/09/27 00:18:53;;;;;;;7.88;5.70;;;;;;;;;;6134597;23;20021;-82
2023/09/27 00:21:21;;;;;;;5.03;3.70;;;;;;;;;;6160067;23;20013;-82
2023/09/27 00:23:49;;;;;;;5.82;5.32;;;;;;;;;;6135099;23;20021;-82
2023/09/27 00:26:16;;;;;;;5.72;5.30;;;;;;;;;;6161023;23;20013;-82
2023/09/27 00:28:46;;;;;;;5.20;4.70;;;;;;;;;;6159386;23;20353;-82
2023/09/27 00:31:16;;;;;;;5.93;5.03;;;;;;;;;;6135559;23;20357;-82
2023/09/27 00:33:45;;;;;;;5.28;4.88;;;;;;;;;;6159381;23;20028;-82
2023/09/27 00:36:13;;;;;;;4.75;4.35;;;;;;;;;;6135167;23;20024;-82
2023/09/27 00:38:44;;;;;;;6.18;5.53;;;;;;;;;;6158632;23;20040;-82
2023/09/27 00:41:11;;;;;;;6.47;4.78;;;;;;;;;;6134339;23;20065;-82
2023/09/27 00:43:41;;;;;;;4.78;3.50;;;;;;;;;;6159807;23;20024;-82
2023/09/27 00:46:13;;;;;;;5.75;5.10;;;;;;;;;;6134543;23;20032;-82
2023/09/27 00:48:41;;;;;;;6.22;5.25;;;;;;;;;;6133421;23;20024;-82
2023/09/27 00:51:11;;;;;;;4.82;4.32;;;;;;;;;;6170271;23;20499;-82
2023/09/27 00:53:38;;;;;;;6.63;5.47;;;;;;;;;;6133141;23;20020;-82
2023/09/27 00:56:08;;;;;;;4.57;3.85;;;;;;;;;;6132626;23;20487;-82
2023/09/27 00:58:37;;;;;;;5.35;4.25;;;;;;;;;;6133551;23;20024;-82
2023/09/27 01:01:08;;;;;;;4.63;4.15;;;;;;;;;;6158887;23;20021;-82
2023/09/27 01:03:37;;;;;;;6.10;5.22;;;;;;;;;;6159133;23;20021;-82
2023/09/27 01:06:05;;;;;;;9.52;5.35;;;;;;;;;;6134954;23;20025;-82
2023/09/27 01:08:32;;;;;;;5.38;4.10;;;;;;;;;;6160073;23;20009;-82
2023/09/27 01:11:00;;;;;;;6.53;5.13;;;;;;;;;;6157937;23;20348;-82
2023/09/27 01:13:31;;;;;;;7.03;5.10;;;;;;;;;;6133715;23;20065;-82
2023/09/27 01:16:00;;;;;;;4.35;3.95;;;;;;;;;;6134671;23;20017;-83
2023/09/27 01:18:27;;;;;;;5.15;4.65;;;;;;;;;;6134230;23;20021;-83
2023/09/27 01:20:57;;;;;;;4.15;3.75;;;;;;;;;;6159324;23;20017;-82
2023/09/27 01:23:28;;;;;;;6.70;4.43;;;;;;;;;;6133015;23;20024;-82
2023/09/27 01:25:59;;;;;;;5.85;4.68;;;;;;;;;;6166750;23;20017;-82
2023/09/27 01:28:27;;;;;;;6.07;4.45;;;;;;;;;;6133525;23;20507;-82
2023/09/27 01:30:59;;;;;;;5.53;5.03;;;;;;;;;;6194196;23;20024;-82
2023/09/27 01:33:27;;;;;;;4.53;4.13;;;;;;;;;;6159551;23;20708;-82
2023/09/27 01:36:18;;;;;;;5.07;4.57;;;;;;;;;;6135313;23;20021;-82
2023/09/27 01:38:47;;;;;;;4.63;4.03;;;;;;;;;;6106057;23;20621;-80
2023/09/27 01:41:18;;;;;;;4.95;4.45;;;;;;;;;;6081369;23;20030;-80
2023/09/27 01:43:45;;;;;;;6.45;5.85;;;;;;;;;;6116764;23;20021;-80
2023/09/27 01:46:13;;;;;;;5.28;4.57;;;;;;;;;;6059249;23;20022;-82
2023/09/27 01:48:41;;;;;;;5.10;4.43;;;;;;;;;;6104199;23;20079;-82
2023/09/27 01:51:08;;;;;;;5.20;4.13;;;;;;;;;;6103464;23;20615;-82
2023/09/27 01:53:36;;;;;;;4.45;3.50;;;;;;;;;;6078939;23;20029;-82
2023/09/27 01:56:05;;;;;;;11.73;6.75;;;;;;;;;;6102403;23;20033;-82
2023/09/27 01:58:32;;;;;;;5.57;4.82;;;;;;;;;;6103166;23;20014;-82
2023/09/27 02:00:59;;;;;;;4.28;3.47;;;;;;;;;;6078133;23;20029;-82
2023/09/27 02:03:29;;;;;;;5.65;3.88;;;;;;;;;;6080027;23;20018;-82
2023/09/27 02:05:58;;;;;;;4.95;4.53;;;;;;;;;;6079504;23;20022;-82
2023/09/27 02:08:27;;;;;;;5.53;4.20;;;;;;;;;;6080256;23;20014;-82
2023/09/27 02:10:58;;;;;;;4.25;3.55;;;;;;;;;;6079387;23;20033;-82
2023/09/27 02:13:27;;;;;;;6.47;4.75;;;;;;;;;;6080257;23;20029;-82
2023/09/27 02:15:55;;;;;;;6.05;5.15;;;;;;;;;;6079764;23;20026;-82
2023/09/27 02:18:22;;;;;;;5.28;4.78;;;;;;;;;;6078936;23;20458;-82
2023/09/27 02:20:50;;;;;;;6.05;5.00;;;;;;;;;;6104841;23;20022;-81
2023/09/27 02:23:19;;;;;;;4.60;4.18;;;;;;;;;;6080687;23;20022;-81
2023/09/27 02:25:56;;;;;;;4.80;4.30;;;;;;;;;;6079872;23;20021;-81
2023/09/27 02:28:24;;;;;;;5.50;3.88;;;;;;;;;;6113032;23;20017;-81
2023/09/27 02:30:55;;;;;;;4.82;4.32;;;;;;;;;;6104158;23;20025;-81
2023/09/27 02:33:22;;;;;;;8.68;5.53;;;;;;;;;;6080737;23;20036;-81
2023/09/27 02:35:49;;;;;;;7.25;5.05;;;;;;;;;;6080966;23;20024;-83
2023/09/27 02:38:17;;;;;;;4.50;4.10;;;;;;;;;;6079347;23;20029;-82
2023/09/27 02:40:44;;;;;;;5.15;4.68;;;;;;;;;;6078939;23;20489;-82
2023/09/27 02:43:15;;;;;;;4.70;3.70;;;;;;;;;;6081191;23;20026;-82
2023/09/27 02:45:42;;;;;;;4.55;4.15;;;;;;;;;;6081553;23;20481;-82
2023/09/27 02:48:11;;;;;;;5.25;4.75;;;;;;;;;;6078969;23;20017;-82
2023/09/27 02:50:38;;;;;;;6.75;5.45;;;;;;;;;;6102978;23;20537;-82
2023/09/27 02:53:05;;;;;;;10.00;5.93;;;;;;;;;;6104528;23;20018;-82
2023/09/27 02:55:34;;;;;;;7.30;6.60;;;;;;;;;;6079558;23;20029;-82
2023/09/27 02:58:05;;;;;;;9.50;7.63;;;;;;;;;;6103960;23;20021;-82
2023/09/27 03:00:35;;;;;;;11.93;10.73;;;;;;;;;;6079606;23;20029;-82
2023/09/27 03:03:07;;;;;;;14.65;10.85;;;;;;;;;;6115077;23;20029;-82
2023/09/27 03:05:36;;;;;;;10.20;9.18;;;;;;;;;;6080809;23;20045;-82
2023/09/27 03:08:06;;;;;;;7.57;6.75;;;;;;;;;;6081527;23;20030;-82
2023/09/27 03:10:39;;;;;;;6.65;5.80;;;;;;;;;;6102621;23;20021;-82
2023/09/27 03:13:09;;;;;;;7.78;4.47;;;;;;;;;;6081467;23;20048;-82
2023/09/27 03:15:37;;;;;;;5.55;5.03;;;;;;;;;;6081168;23;20017;-82
2023/09/27 03:18:05;;;;;;;5.07;4.57;;;;;;;;;;6079512;23;20662;-82
2023/09/27 03:20:36;;;;;;;8.13;5.18;;;;;;;;;;6077109;23;20029;-82
2023/09/27 03:23:04;;;;;;;6.85;6.15;;;;;;;;;;6079227;23;20029;-82
2023/09/27 03:25:31;;;;;;;10.80;6.38;;;;;;;;;;6078959;23;20454;-82
2023/09/27 03:28:04;;;;;;;6.18;5.57;;;;;;;;;;6078819;23;20045;-82
2023/09/27 03:30:32;;;;;;;5.35;4.85;;;;;;;;;;6075885;23;20033;-82
2023/09/27 03:32:59;;;;;;;4.97;4.47;;;;;;;;;;6076335;23;20022;-82
2023/09/27 03:35:27;;;;;;;4.20;3.78;;;;;;;;;;6076406;23;20022;-82
2023/09/27 03:38:01;;;;;;;6.22;5.18;;;;;;;;;;6076737;23;20335;-82
2023/09/27 03:40:31;;;;;;;6.13;5.13;;;;;;;;;;6109691;23;20013;-82
2023/09/27 03:43:00;;;;;;;5.82;5.22;;;;;;;;;;6081333;23;20028;-82
2023/09/27 03:45:34;;;;;;;6.95;6.35;;;;;;;;;;6114880;23;20028;-82
2023/09/27 03:48:07;;;;;;;6.88;6.28;;;;;;;;;;6117656;23;20346;-82
2023/09/27 03:50:35;;;;;;;6.78;5.85;;;;;;;;;;6082484;23;20020;-82
2023/09/27 03:53:05;;;;;;;6.72;5.90;;;;;;;;;;6085194;23;20033;-82
2023/09/27 03:55:33;;;;;;;6.80;5.97;;;;;;;;;;6115790;23;20013;-82
2023/09/27 03:58:03;;;;;;;13.55;6.22;;;;;;;;;;6078765;23;20026;-82
2023/09/27 04:00:30;;;;;;;8.30;6.43;;;;;;;;;;6101692;23;20017;-82
2023/09/27 04:02:57;;;;;;;8.63;6.82;;;;;;;;;;6077395;23;20018;-81
2023/09/27 04:05:27;;;;;;;8.65;7.13;;;;;;;;;;6079747;23;20335;-81
2023/09/27 04:07:54;;;;;;;7.07;6.40;;;;;;;;;;6103485;23;20017;-81
2023/09/27 04:10:24;;;;;;;13.27;7.90;;;;;;;;;;6106417;23;20018;-81
2023/09/27 04:12:51;;;;;;;11.40;6.53;;;;;;;;;;6104531;23;20021;-82
2023/09/27 04:15:21;;;;;;;15.13;7.78;;;;;;;;;;6141899;23;20028;-81
2023/09/27 04:17:48;;;;;;;9.52;6.43;;;;;;;;;;6105399;23;20024;-81
2023/09/27 04:20:17;;;;;;;10.18;6.55;;;;;;;;;;6133275;23;20014;-81
2023/09/27 04:22:47;;;;;;;9.57;7.80;;;;;;;;;;6083340;23;20487;-81
2023/09/27 04:25:15;;;;;;;9.38;7.53;;;;;;;;;;6106179;23;20018;-81
2023/09/27 04:27:47;;;;;;;13.20;9.10;;;;;;;;;;6104199;23;20017;-82
2023/09/27 04:30:15;;;;;;;64.75;16.88;;;;;;;;;;6078693;23;20020;-82
2023/09/27 04:32:43;;;;;;;24.17;12.57;;;;;;;;;;6102406;23;20017;-81
2023/09/27 04:35:13;;;;;;;14.25;10.52;;;;;;;;;;6131696;23;20355;-81
2023/09/27 04:37:43;;;;;;;10.13;9.18;;;;;;;;;;6104134;23;20030;-81
2023/09/27 04:40:11;;;;;;;16.83;10.68;;;;;;;;;;6081399;23;20021;-81
2023/09/27 04:42:42;;;;;;;9.68;7.57;;;;;;;;;;6082775;23;20022;-82
2023/09/27 04:45:12;;;;;;;11.88;7.03;;;;;;;;;;6082769;23;20466;-82
2023/09/27 04:47:40;;;;;;;21.13;10.68;;;;;;;;;;6082387;23;20028;-82
2023/09/27 04:50:09;;;;;;;24.80;12.43;;;;;;;;;;6104698;23;20025;-82
2023/09/27 04:52:39;;;;;;;13.15;10.00;;;;;;;;;;6106397;23;20028;-82
2023/09/27 04:55:08;;;;;;;9.43;7.80;;;;;;;;;;6082594;23;20025;-82
2023/09/27 04:57:35;;;;;;;9.60;7.80;;;;;;;;;;6106548;23;20018;-82
2023/09/27 05:00:13;;;;;;;13.43;8.40;;;;;;;;;;6080574;23;20025;-82
2023/09/27 05:02:42;;;;;;;20.65;10.50;;;;;;;;;;6079819;23;20026;-82
2023/09/27 05:05:11;;;;;;;9.60;7.93;;;;;;;;;;6115089;23;20022;-82
2023/09/27 05:07:43;;;;;;;17.98;10.27;;;;;;;;;;6081007;23;20022;-82
2023/09/27 05:10:11;;;;;;;8.98;7.78;;;;;;;;;;6104650;23;20018;-82
2023/09/27 05:12:43;;;;;;;13.65;9.70;;;;;;;;;;6130582;23;20032;-82
2023/09/27 05:15:13;;;;;;;8.05;6.82;;;;;;;;;;6081969;23;20036;-82
2023/09/27 05:17:44;;;;;;;29.73;10.20;;;;;;;;;;6107211;23;20018;-82
2023/09/27 05:20:13;;;;;;;9.27;6.20;;;;;;;;;;6105834;23;20010;-82
2023/09/27 05:22:40;;;;;;;11.23;7.43;;;;;;;;;;6132671;23;20025;-82
2023/09/27 05:25:08;;;;;;;8.88;7.07;;;;;;;;;;6084407;23;20022;-82
2023/09/27 05:27:35;;;;;;;7.47;6.70;;;;;;;;;;6081824;23;20026;-82
2023/09/27 05:30:08;;;;;;;8.43;7.53;;;;;;;;;;6081850;23;20018;-82
2023/09/27 05:32:35;;;;;;;14.40;7.90;;;;;;;;;;6081752;23;20339;-82
2023/09/27 05:35:07;;;;;;;9.23;7.57;;;;;;;;;;6104668;23;20630;-82
2023/09/27 05:37:37;;;;;;;10.90;7.75;;;;;;;;;;6106211;23;20028;-83
2023/09/27 05:40:07;;;;;;;13.75;9.05;;;;;;;;;;6139557;23;20022;-81
2023/09/27 05:42:35;;;;;;;21.05;9.57;;;;;;;;;;6104362;23;20030;-82
2023/09/27 05:45:07;;;;;;;9.95;7.70;;;;;;;;;;6081317;23;20029;-82
2023/09/27 05:47:37;;;;;;;11.88;7.95;;;;;;;;;;6102100;23;20018;-82
2023/09/27 05:50:09;;;;;;;13.27;7.93;;;;;;;;;;6116072;23;20014;-82
2023/09/27 05:52:39;;;;;;;10.07;7.43;;;;;;;;;;6141078;23;20347;-82
2023/09/27 05:55:07;;;;;;;6.38;5.78;;;;;;;;;;6082222;23;20028;-82
2023/09/27 06:17:48;;;;;;;31.02;9.32;;;;;;;;;;6220641;23;20016;-80
2023/09/27 06:20:21;;;;;;;27.10;7.55;;;;;;;;;;6195904;23;20015;-80
2023/09/27 06:22:52;;;;;;;17.05;7.35;;;;;;;;;;6196284;23;20020;-80
2023/09/27 06:25:23;;;;;;;17.95;8.18;;;;;;;;;;6196955;23;20500;-79
2023/09/27 06:27:51;;;;;;;26.30;8.15;;;;;;;;;;6171258;23;20021;-81
2023/09/27 06:30:21;;;;;;;12.95;10.50;;;;;;;;;;6167948;23;20023;-81
2023/09/27 06:32:52;;;;;;;11.25;7.05;;;;;;;;;;6171399;23;20025;-82
2023/09/27 07:34:23;;;;;;;4.28;3.88;;;;;;;;;;6184655;23;20020;-81
2023/09/27 11:29:04;;;;;;;4.18;3.78;;;;;;;;;;6186010;23;20024;-82
2023/09/27 11:40:43;;;;;;;5.43;3.55;;;;;;;;;;5954883;23;20027;-82
2023/09/27 12:15:48;;;;;;;4.22;3.08;;;;;;;;;;6190231;23;20021;-82
2023/09/27 12:18:18;;;;;;;3.92;2.88;;;;;;;;;;6172291;23;20017;-82
2023/09/27 12:20:45;;;;;;;5.43;2.95;;;;;;;;;;6189285;23;20020;-82
2023/09/27 12:23:13;;;;;;;2.85;2.58;;;;;;;;;;6139184;23;20027;-82
2023/09/27 12:25:43;;;;;;;2.42;2.20;;;;;;;;;;6139120;23;20017;-82
2023/09/27 12:28:14;;;;;;;3.88;2.75;;;;;;;;;;6164295;23;20021;-82
2023/09/27 12:30:41;;;;;;;3.00;2.47;;;;;;;;;;6163506;23;20233;-82
2023/09/27 12:33:12;;;;;;;3.53;3.22;;;;;;;;;;6138957;23;20013;-82
2023/09/27 12:35:39;;;;;;;3.63;2.53;;;;;;;;;;6139085;23;20017;-82
2023/09/27 12:38:07;;;;;;;2.78;2.25;;;;;;;;;;6138386;23;20031;-82
2023/09/27 12:40:34;;;;;;;6.72;3.03;;;;;;;;;;6163493;23;20037;-82
2023/09/27 12:43:02;;;;;;;2.60;2.40;;;;;;;;;;6163180;23;20021;-82
2023/09/27 12:45:32;;;;;;;3.17;2.28;;;;;;;;;;6138651;23;20070;-82
2023/09/27 12:48:01;;;;;;;2.75;2.55;;;;;;;;;;6163990;23;20027;-82
2023/09/27 12:50:32;;;;;;;4.20;2.95;;;;;;;;;;6139086;23;20021;-82
2023/09/27 12:53:03;;;;;;;2.85;2.65;;;;;;;;;;6199207;23;20013;-82
2023/09/27 12:55:30;;;;;;;3.15;2.40;;;;;;;;;;6171695;23;20017;-83
2023/09/27 12:58:00;;;;;;;3.28;2.78;;;;;;;;;;6163877;23;20021;-82
2023/09/27 13:00:28;;;;;;;2.92;2.45;;;;;;;;;;6163899;23;20017;-82
2023/09/27 13:02:57;;;;;;;3.10;2.60;;;;;;;;;;6162665;23;20017;-82
2023/09/27 13:05:27;;;;;;;4.25;2.95;;;;;;;;;;6164311;23;20036;-82
2023/09/27 13:07:56;;;;;;;5.47;3.25;;;;;;;;;;6163671;23;20017;-82
2023/09/27 13:10:25;;;;;;;2.90;2.70;;;;;;;;;;6138922;23;20021;-82
2023/09/27 13:12:52;;;;;;;3.72;3.40;;;;;;;;;;6162840;23;20017;-82
2023/09/27 13:15:22;;;;;;;4.45;3.15;;;;;;;;;;6114704;23;20409;-82
2023/09/27 13:17:49;;;;;;;3.58;2.60;;;;;;;;;;6109710;23;20504;-82
2023/09/27 13:20:16;;;;;;;2.65;2.45;;;;;;;;;;6132726;23;20025;-82
2023/09/27 13:22:44;;;;;;;2.50;2.30;;;;;;;;;;6109311;23;20024;-82
2023/09/27 13:25:15;;;;;;;4.60;2.42;;;;;;;;;;6109038;23;20018;-82
2023/09/27 13:27:45;;;;;;;2.38;2.00;;;;;;;;;;6143071;23;20024;-82
2023/09/27 13:30:14;;;;;;;3.53;1.95;;;;;;;;;;6108274;23;20022;-82
2023/09/27 13:32:44;;;;;;;3.20;2.40;;;;;;;;;;6143584;23;20024;-82
2023/09/27 13:35:11;;;;;;;3.65;2.25;;;;;;;;;;6108017;23;20028;-82
2023/09/27 13:58:50;;;;;;;2.90;2.60;;;;;;;;;;6175154;23;20025;-82
2023/09/27 14:01:19;;;;;;;3.30;2.28;;;;;;;;;;6134126;23;20028;-82
2023/09/27 14:03:49;;;;;;;2.55;2.28;;;;;;;;;;6184554;23;20014;-82
2023/09/27 14:06:17;;;;;;;2.55;2.10;;;;;;;;;;6133942;23;20021;-83
2023/09/27 14:08:47;;;;;;;4.25;2.40;;;;;;;;;;6134063;23;20021;-82
2023/09/27 14:11:20;;;;;;;2.58;1.98;;;;;;;;;;6158235;23;20032;-82
2023/09/27 14:13:47;;;;;;;2.20;1.80;;;;;;;;;;6158920;23;20024;-83
2023/09/27 14:16:18;;;;;;;3.60;2.90;;;;;;;;;;6163392;23;20017;-83
2023/09/27 14:18:48;;;;;;;4.50;3.00;;;;;;;;;;6168950;23;20024;-83
2023/09/27 14:21:18;;;;;;;3.42;2.70;;;;;;;;;;6157050;23;20017;-82
2023/09/27 14:23:48;;;;;;;2.78;2.50;;;;;;;;;;6185322;23;20013;-82
2023/09/27 14:26:19;;;;;;;3.72;2.45;;;;;;;;;;6159036;23;20028;-82
2023/09/27 14:28:51;;;;;;;3.28;2.97;;;;;;;;;;6168076;23;20017;-83
2023/09/27 14:31:27;;;;;;;3.70;2.88;;;;;;;;;;6159447;23;20024;-82
2023/09/27 14:33:57;;;;;;;2.72;2.53;;;;;;;;;;6168673;23;20009;-83
2023/09/27 15:21:02;;;;;;;1.65;1.55;;;;;;;;;;5761468;24;20035;-82
2023/09/27 15:23:33;;;;;;;1.90;1.80;;;;;;;;;;5959424;23;20360;-82
2023/09/27 15:26:03;;;;;;;1.95;1.80;;;;;;;;;;6099526;23;20021;-84
2023/09/27 15:28:33;;;;;;;1.67;1.58;;;;;;;;;;6134470;23;20021;-82
2023/09/27 15:31:04;;;;;;;2.00;1.77;;;;;;;;;;6158937;23;20009;-82
2023/09/27 15:33:32;;;;;;;7.03;1.92;;;;;;;;;;6133911;23;20017;-82
2023/09/27 15:36:03;;;;;;;1.80;1.70;;;;;;;;;;6157127;23;20623;-82
2023/09/27 15:38:35;;;;;;;3.00;1.77;;;;;;;;;;6133058;23;20017;-82
2023/09/27 15:41:04;;;;;;;2.20;1.50;;;;;;;;;;6132346;23;20020;-82
2023/09/27 15:43:32;;;;;;;2.47;2.05;;;;;;;;;;6133526;23;20349;-82
2023/09/27 15:46:03;;;;;;;2.42;1.73;;;;;;;;;;6158197;23;20021;-82
2023/09/27 15:48:32;;;;;;;1.95;1.73;;;;;;;;;;6184543;23;20350;-82
2023/09/27 15:51:05;;;;;;;2.08;1.70;;;;;;;;;;6133754;23;20025;-84
2023/09/27 15:53:32;;;;;;;2.30;1.75;;;;;;;;;;6157312;23;20353;-82
2023/09/27 15:56:02;;;;;;;2.95;2.00;;;;;;;;;;6157464;23;20017;-82
2023/09/27 15:58:32;;;;;;;4.25;2.05;;;;;;;;;;6157498;23;20031;-82
2023/09/27 16:01:00;;;;;;;3.08;2.00;;;;;;;;;;6157608;23;20032;-82
2023/09/27 16:03:28;;;;;;;2.92;1.73;;;;;;;;;;6133589;23;20383;-82
2023/09/27 16:06:00;;;;;;;3.70;2.38;;;;;;;;;;6132652;23;20477;-82
2023/09/27 16:08:28;;;;;;;2.00;1.80;;;;;;;;;;6155891;23;20484;-82
2023/09/27 16:10:57;;;;;;;3.55;1.90;;;;;;;;;;6157265;23;20017;-82
2023/09/27 16:13:25;;;;;;;1.50;1.40;;;;;;;;;;6184469;23;20017;-82
2023/09/27 16:15:55;;;;;;;2.13;1.70;;;;;;;;;;6164874;23;20020;-82
2023/09/27 16:18:24;;;;;;;4.07;1.83;;;;;;;;;;6156678;23;20032;-82
2023/09/27 16:20:52;;;;;;;2.60;1.80;;;;;;;;;;6132446;23;20027;-86
2023/09/27 16:23:21;;;;;;;2.10;1.55;;;;;;;;;;6133656;23;20046;-84
2023/09/27 16:25:51;;;;;;;2.08;1.88;;;;;;;;;;6133248;23;20032;-83
2023/09/27 16:28:18;;;;;;;2.38;1.80;;;;;;;;;;6132873;23;20028;-83
2023/09/27 16:30:49;;;;;;;2.25;1.77;;;;;;;;;;6156970;23;20032;-83
2023/09/27 16:33:21;;;;;;;2.70;2.40;;;;;;;;;;6157361;23;20028;-83
2023/09/27 16:41:51;;;;;;;2.47;2.08;;;;;;;;;;6175192;23;20056;-85
2023/09/27 16:44:21;;;;;;;3.38;2.95;;;;;;;;;;6185680;23;20028;-84
2023/09/27 16:46:52;;;;;;;2.70;2.35;;;;;;;;;;6161050;23;20388;-84
2023/09/27 16:49:19;;;;;;;4.00;2.47;;;;;;;;;;6214325;23;20017;-84
2023/09/27 16:51:49;;;;;;;2.65;2.10;;;;;;;;;;6162710;23;20031;-84
2023/09/27 16:54:19;;;;;;;2.53;2.30;;;;;;;;;;6188011;23;20021;-84
2023/09/27 16:56:47;;;;;;;3.50;2.90;;;;;;;;;;6162201;23;20052;-83
2023/09/27 16:59:14;;;;;;;3.10;2.72;;;;;;;;;;6163296;23;20024;-84
2023/09/27 17:01:42;;;;;;;3.63;2.75;;;;;;;;;;6214172;23;20013;-84
2023/09/27 17:04:15;;;;;;;2.53;2.10;;;;;;;;;;6197921;23;20450;-84
2023/09/27 17:06:44;;;;;;;3.33;2.85;;;;;;;;;;6213487;23;20019;-84
2023/09/27 17:09:12;;;;;;;3.67;2.50;;;;;;;;;;6162003;23;20017;-84
2023/09/27 17:11:39;;;;;;;3.83;2.72;;;;;;;;;;6215507;23;20023;-84
2023/09/27 17:14:09;;;;;;;2.97;2.67;;;;;;;;;;6191054;23;20016;-84
2023/09/27 17:16:39;;;;;;;3.03;2.67;;;;;;;;;;6190107;23;20016;-84
2023/09/27 17:19:09;;;;;;;6.57;2.42;;;;;;;;;;6218239;23;20020;-84
2023/09/27 17:21:38;;;;;;;2.83;2.55;;;;;;;;;;6254528;23;20056;-84
2023/09/27 17:24:06;;;;;;;2.67;2.22;;;;;;;;;;6218994;23;20011;-84
2023/09/27 17:26:35;;;;;;;3.78;3.03;;;;;;;;;;6249435;23;20036;-84
2023/09/27 17:29:04;;;;;;;4.88;2.33;;;;;;;;;;6219116;23;20048;-84
2023/09/27 17:31:31;;;;;;;3.03;2.58;;;;;;;;;;6217284;23;20084;-84
2023/09/27 17:34:04;;;;;;;2.97;2.42;;;;;;;;;;6165156;23;20020;-84
2023/09/27 17:36:31;;;;;;;3.08;2.78;;;;;;;;;;6164777;23;20032;-83
2023/09/27 17:39:04;;;;;;;2.78;2.53;;;;;;;;;;6216286;23;20021;-83
2023/09/27 17:41:31;;;;;;;8.93;3.15;;;;;;;;;;6187950;23;20027;-84
2023/09/27 17:44:01;;;;;;;3.50;2.63;;;;;;;;;;6215095;23;20030;-83
2023/09/27 17:46:31;;;;;;;6.53;2.42;;;;;;;;;;6163660;23;20024;-84
2023/09/27 17:49:00;;;;;;;3.10;2.80;;;;;;;;;;6163666;23;20013;-84
2023/09/27 17:51:30;;;;;;;4.47;3.20;;;;;;;;;;6163376;23;20361;-84
2023/09/27 17:54:00;;;;;;;4.15;3.00;;;;;;;;;;6162173;23;20020;-83
2023/09/27 17:56:31;;;;;;;5.57;3.78;;;;;;;;;;6163964;23;20017;-84
2023/09/27 17:58:58;;;;;;;2.80;2.55;;;;;;;;;;6164380;23;20017;-84
2023/09/27 18:01:25;;;;;;;4.95;3.42;;;;;;;;;;6188959;23;20019;-84
2023/09/27 18:03:53;;;;;;;4.13;3.13;;;;;;;;;;6187745;23;20464;-83
2023/09/27 18:06:20;;;;;;;4.10;3.20;;;;;;;;;;6215623;23;20349;-84
2023/09/27 18:08:49;;;;;;;8.27;3.25;;;;;;;;;;6163206;23;20329;-84
2023/09/27 18:11:19;;;;;;;3.30;2.95;;;;;;;;;;6164102;23;20072;-84
2023/09/27 18:13:48;;;;;;;3.58;3.28;;;;;;;;;;6189083;23;20024;-84
2023/09/27 18:16:16;;;;;;;4.00;2.78;;;;;;;;;;6188855;23;20015;-84
2023/09/27 18:18:43;;;;;;;7.47;3.85;;;;;;;;;;6188723;23;20017;-85
2023/09/27 18:21:12;;;;;;;3.97;3.35;;;;;;;;;;6163295;23;20040;-84
2023/09/27 18:23:42;;;;;;;3.83;3.10;;;;;;;;;;6163084;23;20032;-84
2023/09/27 18:26:12;;;;;;;3.03;2.75;;;;;;;;;;6162313;23;20465;-84
2023/09/27 18:28:40;;;;;;;4.18;3.78;;;;;;;;;;6187885;23;20013;-84
2023/09/27 18:31:11;;;;;;;5.43;3.53;;;;;;;;;;6188311;23;20016;-84
2023/09/27 18:33:40;;;;;;;4.05;3.35;;;;;;;;;;6224856;23;20017;-84
2023/09/27 18:36:08;;;;;;;3.63;2.97;;;;;;;;;;6187119;23;20012;-84
2023/09/27 18:38:37;;;;;;;5.90;2.88;;;;;;;;;;6188404;23;20524;-84
2023/09/27 18:41:07;;;;;;;4.85;3.75;;;;;;;;;;6187920;23;20019;-84
2023/09/27 18:43:37;;;;;;;5.25;3.35;;;;;;;;;;6214167;23;20037;-84
2023/09/27 18:46:05;;;;;;;4.07;3.45;;;;;;;;;;6162650;23;20023;-84
2023/09/27 18:48:36;;;;;;;4.53;3.67;;;;;;;;;;6214770;23;20059;-84
2023/09/27 18:51:06;;;;;;;4.15;3.42;;;;;;;;;;6162773;23;20447;-84
2023/09/27 18:53:36;;;;;;;5.75;2.88;;;;;;;;;;6188176;23;20031;-84
2023/09/27 18:56:03;;;;;;;5.35;3.65;;;;;;;;;;6214431;23;20015;-84
2023/09/27 18:58:30;;;;;;;3.97;3.22;;;;;;;;;;6187635;23;20016;-84
2023/09/27 19:00:58;;;;;;;3.92;3.33;;;;;;;;;;6212970;23;20472;-84
2023/09/27 19:03:27;;;;;;;4.47;3.35;;;;;;;;;;6162166;23;20480;-83
2023/09/27 19:05:58;;;;;;;4.15;3.70;;;;;;;;;;6221121;23;20020;-84
2023/09/27 19:08:28;;;;;;;3.75;3.10;;;;;;;;;;6163203;23;20024;-84
2023/09/27 19:10:55;;;;;;;4.68;3.90;;;;;;;;;;6188017;23;20023;-84
2023/09/27 19:13:23;;;;;;;4.15;3.85;;;;;;;;;;6187950;23;20013;-84
2023/09/27 19:15:52;;;;;;;15.32;4.57;;;;;;;;;;6188077;23;20475;-84
2023/09/27 19:18:20;;;;;;;4.10;3.47;;;;;;;;;;6164072;23;20016;-84
2023/09/27 19:20:47;;;;;;;4.93;3.80;;;;;;;;;;6162549;23;20614;-83
2023/09/27 19:23:16;;;;;;;3.78;2.80;;;;;;;;;;6187176;23;20020;-84
2023/09/27 19:25:46;;;;;;;4.15;3.00;;;;;;;;;;6188043;23;20330;-84
2023/09/27 19:28:16;;;;;;;4.63;3.50;;;;;;;;;;6162206;23;20369;-83
2023/09/27 19:30:46;;;;;;;4.90;3.03;;;;;;;;;;6214129;23;20020;-84
2023/09/27 19:33:16;;;;;;;4.43;3.42;;;;;;;;;;6224624;23;20520;-84
2023/09/27 19:38:54;;;;;;;6.82;3.63;;;;;;;;;;6175263;23;20021;-79
2023/09/27 19:41:29;;;;;;;4.28;3.88;;;;;;;;;;6113863;23;20017;-79
2023/09/27 19:43:56;;;;;;;6.13;3.85;;;;;;;;;;6113854;23;20028;-80
2023/09/27 19:46:26;;;;;;;6.57;4.00;;;;;;;;;;6139071;23;20037;-80
2023/09/27 19:48:56;;;;;;;4.63;4.22;;;;;;;;;;6139000;23;20022;-80
2023/09/27 19:51:24;;;;;;;8.70;4.75;;;;;;;;;;6136872;23;20025;-81
2023/09/27 19:54:00;;;;;;;5.03;4.35;;;;;;;;;;6157275;23;20032;-82
2023/09/27 19:56:27;;;;;;;7.90;4.38;;;;;;;;;;6132069;23;20024;-82
2023/09/27 19:58:54;;;;;;;5.80;3.83;;;;;;;;;;6157947;23;20013;-82
2023/09/27 20:01:28;;;;;;;6.68;4.55;;;;;;;;;;6159075;23;20021;-81
2023/09/27 20:03:56;;;;;;;5.00;4.50;;;;;;;;;;6159704;23;20018;-81
2023/09/27 20:06:23;;;;;;;4.20;3.80;;;;;;;;;;6132688;23;20022;-81
2023/09/27 20:08:53;;;;;;;5.50;4.63;;;;;;;;;;6158160;23;20028;-81
2023/09/27 20:11:21;;;;;;;4.45;3.67;;;;;;;;;;6107332;23;20031;-82
2023/09/27 20:13:49;;;;;;;5.00;4.35;;;;;;;;;;6130909;23;20024;-84
2023/09/27 20:16:19;;;;;;;5.68;4.97;;;;;;;;;;6155141;23;20378;-82
2023/09/27 20:18:46;;;;;;;8.55;6.93;;;;;;;;;;6126926;23;20028;-82
2023/09/27 20:21:16;;;;;;;5.68;4.90;;;;;;;;;;6127196;23;20063;-81
2023/09/27 20:23:43;;;;;;;5.35;4.85;;;;;;;;;;6102082;23;20017;-81
2023/09/27 20:26:13;;;;;;;5.80;4.18;;;;;;;;;;6128743;23;20018;-81
2023/09/27 20:28:44;;;;;;;6.05;4.28;;;;;;;;;;6154600;23;20073;-83
2023/09/27 20:31:12;;;;;;;5.63;4.72;;;;;;;;;;6128449;23;20040;-82
2023/09/27 20:33:39;;;;;;;4.22;3.88;;;;;;;;;;6128281;23;20025;-82
2023/09/27 20:36:12;;;;;;;4.68;4.07;;;;;;;;;;6129914;23;20025;-82
2023/09/27 20:38:39;;;;;;;4.63;4.15;;;;;;;;;;6128278;23;20018;-82
2023/09/27 20:41:09;;;;;;;6.38;5.78;;;;;;;;;;6128502;23;20346;-82
2023/09/27 20:43:39;;;;;;;5.00;4.50;;;;;;;;;;6154329;23;20025;-82
2023/09/27 20:46:16;;;;;;;5.00;4.13;;;;;;;;;;6154522;23;20020;-82
2023/09/27 20:48:46;;;;;;;6.43;4.68;;;;;;;;;;6104311;23;20028;-82
2023/09/27 20:51:14;;;;;;;5.90;4.93;;;;;;;;;;6128794;23;20046;-82
2023/09/27 20:53:41;;;;;;;4.72;3.83;;;;;;;;;;6130632;23;20477;-82
2023/09/27 20:56:10;;;;;;;5.57;4.40;;;;;;;;;;6129894;23;20024;-82
2023/09/27 20:58:40;;;;;;;6.53;4.78;;;;;;;;;;6130650;23;20021;-82
2023/09/27 21:01:25;;;;;;;6.38;4.93;;;;;;;;;;6157536;23;20014;-82
2023/09/27 21:03:52;;;;;;;6.75;4.80;;;;;;;;;;6169687;23;20027;-82
2023/09/27 21:06:24;;;;;;;6.30;4.28;;;;;;;;;;6133428;23;20458;-82
2023/09/27 21:08:51;;;;;;;7.75;4.55;;;;;;;;;;6162113;23;20349;-82
2023/09/27 21:11:18;;;;;;;6.60;4.45;;;;;;;;;;6134570;23;20021;-83
2023/09/27 21:13:46;;;;;;;6.75;4.22;;;;;;;;;;6135188;23;20040;-82
2023/09/27 21:16:13;;;;;;;5.72;4.15;;;;;;;;;;6111338;23;20020;-82
2023/09/27 21:18:42;;;;;;;6.93;5.03;;;;;;;;;;6135146;23;20022;-82
2023/09/27 21:21:12;;;;;;;6.72;4.80;;;;;;;;;;6160016;23;20031;-82
2023/09/27 21:23:39;;;;;;;8.45;5.45;;;;;;;;;;6109902;23;20033;-82
2023/09/27 21:26:08;;;;;;;6.63;4.88;;;;;;;;;;6133388;23;20361;-82
2023/09/27 21:28:35;;;;;;;6.55;4.80;;;;;;;;;;6132769;23;20022;-82
2023/09/27 21:31:05;;;;;;;6.75;4.78;;;;;;;;;;6132490;23;20483;-82
2023/09/27 21:33:33;;;;;;;5.63;4.28;;;;;;;;;;6132662;23;20040;-82
2023/09/27 21:36:01;;;;;;;6.85;4.45;;;;;;;;;;6108855;23;20024;-82
2023/09/27 21:38:32;;;;;;;4.75;4.22;;;;;;;;;;6138534;23;20025;-83
2023/09/27 21:40:59;;;;;;;6.47;4.93;;;;;;;;;;6127635;23;20026;-82
2023/09/27 21:43:27;;;;;;;6.05;4.55;;;;;;;;;;6078901;23;20022;-82
2023/09/27 21:45:57;;;;;;;4.78;4.28;;;;;;;;;;6103091;23;20028;-82
2023/09/27 21:48:24;;;;;;;4.35;3.95;;;;;;;;;;6103416;23;20021;-82
2023/09/27 21:50:52;;;;;;;6.30;4.82;;;;;;;;;;6125560;23;20022;-82
2023/09/27 21:53:23;;;;;;;5.80;4.70;;;;;;;;;;6102752;23;20032;-82
2023/09/27 21:55:50;;;;;;;6.47;5.10;;;;;;;;;;6127017;23;20755;-82
2023/09/27 21:58:19;;;;;;;4.88;4.35;;;;;;;;;;6081105;23;20029;-82
2023/09/27 22:00:47;;;;;;;9.90;4.93;;;;;;;;;;6103589;23;20022;-82